sensor_id;sensor_type;location;lat;lon;timestamp;pressure;altitude;pressure_sealevel;temperature;humidity
7333;BME280;3707;43.618;25.342;2022-09-25T00:01:35;100476.13;;;14.70;96.69
7333;BME280;3707;43.618;25.342;2022-09-25T00:04:04;100475.22;;;14.58;96.31
7333;BME280;3707;43.618;25.342;2022-09-25T00:06:31;100476.88;;;14.41;98.06
7333;BME280;3707;43.618;25.342;2022-09-25T00:08:59;100468.94;;;14.31;100.00
7333;BME280;3707;43.618;25.342;2022-09-25T00:11:28;100367.72;;;13.65;100.00
7333;BME280;3707;43.618;25.342;2022-09-25T00:13:56;100468.84;;;14.18;100.00
7333;BME280;3707;43.618;25.342;2022-09-25T00:16:25;100456.59;;;14.06;100.00
7333;BME280;3707;43.618;25.342;2022-09-25T00:18:53;100462.56;;;13.90;100.00
7333;BME280;3707;43.618;25.342;2022-09-25T00:21:39;100467.69;;;13.78;100.00
7333;BME280;3707;43.618;25.342;2022-09-25T00:24:08;100458.88;;;13.64;100.00
7333;BME280;3707;43.618;25.342;2022-09-25T00:26:37;100450.09;;;13.53;100.00
7333;BME280;3707;43.618;25.342;2022-09-25T00:29:05;100461.31;;;13.44;100.00
7333;BME280;3707;43.618;25.342;2022-09-25T00:31:33;100425.56;;;13.26;100.00
7333;BME280;3707;43.618;25.342;2022-09-25T00:34:02;100439.56;;;13.40;100.00
7333;BME280;3707;43.618;25.342;2022-09-25T00:36:29;100412.44;;;13.17;100.00
7333;BME280;3707;43.618;25.342;2022-09-25T00:38:58;100433.31;;;13.22;100.00
7333;BME280;3707;43.618;25.342;2022-09-25T00:41:26;100441.00;;;13.11;100.00
7333;BME280;3707;43.618;25.342;2022-09-25T00:43:55;100442.66;;;13.05;100.00
7333;BME280;3707;43.618;25.342;2022-09-25T00:46:26;100423.38;;;12.89;100.00
7333;BME280;3707;43.618;25.342;2022-09-25T00:48:58;100437.25;;;12.88;100.00
7333;BME280;3707;43.618;25.342;2022-09-25T00:51:29;100397.06;;;12.62;100.00
7333;BME280;3707;43.618;25.342;2022-09-25T00:54:02;100424.88;;;12.69;100.00
7333;BME280;3707;43.618;25.342;2022-09-25T00:56:35;100427.50;;;12.69;100.00
7333;BME280;3707;43.618;25.342;2022-09-25T00:59:03;100422.25;;;12.66;100.00
7333;BME280;3707;43.618;25.342;2022-09-25T01:01:31;100426.56;;;12.62;100.00
7333;BME280;3707;43.618;25.342;2022-09-25T01:03:58;100411.72;;;12.57;100.00
7333;BME280;3707;43.618;25.342;2022-09-25T01:06:25;100410.94;;;12.64;100.00
7333;BME280;3707;43.618;25.342;2022-09-25T01:08:53;100396.97;;;12.54;100.00
7333;BME280;3707;43.618;25.342;2022-09-25T01:11:21;100412.66;;;12.63;100.00
7333;BME280;3707;43.618;25.342;2022-09-25T01:13:48;100401.25;;;12.52;100.00
7333;BME280;3707;43.618;25.342;2022-09-25T01:16:21;100397.81;;;12.52;100.00
7333;BME280;3707;43.618;25.342;2022-09-25T01:19:00;100404.69;;;12.48;100.00
7333;BME280;3707;43.618;25.342;2022-09-25T01:21:36;100408.00;;;12.36;100.00
7333;BME280;3707;43.618;25.342;2022-09-25T01:24:30;100405.34;;;12.30;100.00
7333;BME280;3707;43.618;25.342;2022-09-25T01:27:34;100407.03;;;12.28;100.00
7333;BME280;3707;43.618;25.342;2022-09-25T01:30:10;100403.56;;;12.26;100.00
7333;BME280;3707;43.618;25.342;2022-09-25T01:32:47;100405.25;;;12.24;100.00
7333;BME280;3707;43.618;25.342;2022-09-25T01:35:22;100403.44;;;12.20;100.00
7333;BME280;3707;43.618;25.342;2022-09-25T01:37:53;100387.75;;;12.11;100.00
7333;BME280;3707;43.618;25.342;2022-09-25T01:40:27;100389.50;;;12.12;100.00
7333;BME280;3707;43.618;25.342;2022-09-25T01:43:01;100381.59;;;12.06;100.00
7333;BME280;3707;43.618;25.342;2022-09-25T01:45:37;100395.66;;;12.19;100.00
7333;BME280;3707;43.618;25.342;2022-09-25T01:48:09;100399.16;;;12.24;100.00
7333;BME280;3707;43.618;25.342;2022-09-25T01:50:41;100400.94;;;12.28;100.00
7333;BME280;3707;43.618;25.342;2022-09-25T01:53:14;100396.59;;;12.25;100.00
7333;BME280;3707;43.618;25.342;2022-09-25T01:55:45;100388.66;;;12.15;100.00
7333;BME280;3707;43.618;25.342;2022-09-25T01:58:17;100397.41;;;12.21;100.00
7333;BME280;3707;43.618;25.342;2022-09-25T02:00:50;100367.72;;;12.06;100.00
7333;BME280;3707;43.618;25.342;2022-09-25T02:03:23;100282.94;;;11.51;100.00
7333;BME280;3707;43.618;25.342;2022-09-25T02:05:54;100405.09;;;12.12;100.00
7333;BME280;3707;43.618;25.342;2022-09-25T02:08:24;100405.09;;;12.12;100.00
7333;BME280;3707;43.618;25.342;2022-09-25T02:10:54;100393.75;;;12.07;100.00
7333;BME280;3707;43.618;25.342;2022-09-25T02:13:25;100394.59;;;12.06;100.00
7333;BME280;3707;43.618;25.342;2022-09-25T02:15:56;100398.75;;;11.95;100.00
7333;BME280;3707;43.618;25.342;2022-09-25T02:18:24;100380.25;;;11.74;100.00
7333;BME280;3707;43.618;25.342;2022-09-25T02:21:13;100399.47;;;11.83;100.00
7333;BME280;3707;43.618;25.342;2022-09-25T02:23:49;100403.72;;;11.77;100.00
7333;BME280;3707;43.618;25.342;2022-09-25T02:26:23;100380.09;;;11.65;100.00
7333;BME280;3707;43.618;25.342;2022-09-25T02:28:51;100395.69;;;11.65;100.00
7333;BME280;3707;43.618;25.342;2022-09-25T02:31:22;100387.88;;;11.65;100.00
7333;BME280;3707;43.618;25.342;2022-09-25T02:33:51;100384.34;;;11.58;100.00
7333;BME280;3707;43.618;25.342;2022-09-25T02:36:19;100384.28;;;11.57;100.00
7333;BME280;3707;43.618;25.342;2022-09-25T02:38:48;100385.16;;;11.56;100.00
7333;BME280;3707;43.618;25.342;2022-09-25T02:41:21;100382.53;;;11.54;100.00
7333;BME280;3707;43.618;25.342;2022-09-25T02:44:00;100404.44;;;11.70;100.00
7333;BME280;3707;43.618;25.342;2022-09-25T02:46:37;100404.34;;;11.67;100.00
7333;BME280;3707;43.618;25.342;2022-09-25T02:49:15;100400.22;;;11.76;100.00
7333;BME280;3707;43.618;25.342;2022-09-25T02:51:51;100419.25;;;11.75;100.00
7333;BME280;3707;43.618;25.342;2022-09-25T02:54:24;100418.34;;;11.72;100.00
7333;BME280;3707;43.618;25.342;2022-09-25T02:56:59;100419.13;;;11.69;100.00
7333;BME280;3707;43.618;25.342;2022-09-25T02:59:32;100424.28;;;11.68;100.00
7333;BME280;3707;43.618;25.342;2022-09-25T03:02:02;100429.50;;;11.66;100.00
7333;BME280;3707;43.618;25.342;2022-09-25T03:04:30;100426.84;;;11.65;100.00
7333;BME280;3707;43.618;25.342;2022-09-25T03:07:00;100347.28;;;11.17;100.00
7333;BME280;3707;43.618;25.342;2022-09-25T03:09:28;100411.00;;;11.50;100.00
7333;BME280;3707;43.618;25.342;2022-09-25T03:11:56;100433.63;;;11.57;100.00
7333;BME280;3707;43.618;25.342;2022-09-25T03:14:23;100435.34;;;11.55;100.00
7333;BME280;3707;43.618;25.342;2022-09-25T03:16:54;100413.59;;;11.50;100.00
7333;BME280;3707;43.618;25.342;2022-09-25T03:19:24;100417.03;;;11.47;100.00
7333;BME280;3707;43.618;25.342;2022-09-25T03:21:52;100437.03;;;11.51;100.00
7333;BME280;3707;43.618;25.342;2022-09-25T03:24:20;100442.22;;;11.51;100.00
7333;BME280;3707;43.618;25.342;2022-09-25T03:26:47;100411.72;;;11.39;100.00
7333;BME280;3707;43.618;25.342;2022-09-25T03:29:15;100437.97;;;11.58;100.00
7333;BME280;3707;43.618;25.342;2022-09-25T03:31:41;100424.03;;;11.51;100.00
7333;BME280;3707;43.618;25.342;2022-09-25T03:34:10;100442.38;;;11.62;100.00
7333;BME280;3707;43.618;25.342;2022-09-25T03:36:38;100437.19;;;11.63;100.00
7333;BME280;3707;43.618;25.342;2022-09-25T03:39:05;100440.72;;;11.67;100.00
7333;BME280;3707;43.618;25.342;2022-09-25T03:41:35;100448.72;;;11.77;100.00
7333;BME280;3707;43.618;25.342;2022-09-25T03:44:03;100393.56;;;11.41;100.00
7333;BME280;3707;43.618;25.342;2022-09-25T03:46:31;100451.44;;;11.85;100.00
7333;BME280;3707;43.618;25.342;2022-09-25T03:48:59;100447.16;;;11.87;100.00
7333;BME280;3707;43.618;25.342;2022-09-25T03:51:28;100444.66;;;11.93;100.00
7333;BME280;3707;43.618;25.342;2022-09-25T03:53:56;100436.06;;;11.97;100.00
7333;BME280;3707;43.618;25.342;2022-09-25T03:56:25;100439.56;;;12.02;100.00
7333;BME280;3707;43.618;25.342;2022-09-25T03:58:53;100446.69;;;12.12;100.00
7333;BME280;3707;43.618;25.342;2022-09-25T04:01:20;100441.44;;;12.09;100.00
7333;BME280;3707;43.618;25.342;2022-09-25T04:03:48;100453.59;;;12.13;100.00
7333;BME280;3707;43.618;25.342;2022-09-25T04:06:16;100425.75;;;12.03;100.00
7333;BME280;3707;43.618;25.342;2022-09-25T04:08:45;100443.16;;;12.09;100.00
7333;BME280;3707;43.618;25.342;2022-09-25T04:11:13;100423.13;;;12.02;100.00
7333;BME280;3707;43.618;25.342;2022-09-25T04:13:41;100443.13;;;12.07;100.00
7333;BME280;3707;43.618;25.342;2022-09-25T04:16:09;100444.88;;;12.08;100.00
7333;BME280;3707;43.618;25.342;2022-09-25T04:18:36;100444.78;;;12.02;100.00
7333;BME280;3707;43.618;25.342;2022-09-25T04:21:05;100434.44;;;12.05;100.00
7333;BME280;3707;43.618;25.342;2022-09-25T04:23:33;100422.34;;;12.07;100.00
7333;BME280;3707;43.618;25.342;2022-09-25T04:26:00;100428.44;;;12.09;100.00
7333;BME280;3707;43.618;25.342;2022-09-25T04:28:28;100428.38;;;12.05;100.00
7333;BME280;3707;43.618;25.342;2022-09-25T04:30:56;100428.34;;;12.03;100.00
7333;BME280;3707;43.618;25.342;2022-09-25T04:33:23;100326.25;;;11.52;100.00
7333;BME280;3707;43.618;25.342;2022-09-25T04:36:07;100412.00;;;12.12;100.00
7333;BME280;3707;43.618;25.342;2022-09-25T04:38:34;100412.13;;;12.19;100.00
7333;BME280;3707;43.618;25.342;2022-09-25T04:41:01;100336.28;;;11.86;100.00
7333;BME280;3707;43.618;25.342;2022-09-25T04:43:30;100412.59;;;12.57;100.00
7333;BME280;3707;43.618;25.342;2022-09-25T04:46:00;100421.56;;;12.80;100.00
7333;BME280;3707;43.618;25.342;2022-09-25T04:48:27;100419.03;;;12.88;100.00
7333;BME280;3707;43.618;25.342;2022-09-25T04:50:54;100415.66;;;12.97;100.00
7333;BME280;3707;43.618;25.342;2022-09-25T04:53:22;100407.06;;;13.04;100.00
7333;BME280;3707;43.618;25.342;2022-09-25T04:55:50;100408.03;;;13.13;100.00
7333;BME280;3707;43.618;25.342;2022-09-25T04:58:18;100419.44;;;13.24;100.00
7333;BME280;3707;43.618;25.342;2022-09-25T05:00:47;100391.66;;;13.25;100.00
7333;BME280;3707;43.618;25.342;2022-09-25T05:03:14;100414.34;;;13.36;100.00
7333;BME280;3707;43.618;25.342;2022-09-25T05:05:40;100412.69;;;13.43;100.00
7333;BME280;3707;43.618;25.342;2022-09-25T05:08:08;100372.66;;;13.30;100.00
7333;BME280;3707;43.618;25.342;2022-09-25T05:10:35;100408.44;;;13.54;100.00
7333;BME280;3707;43.618;25.342;2022-09-25T05:13:04;100415.47;;;13.66;100.00
7333;BME280;3707;43.618;25.342;2022-09-25T05:15:33;100426.84;;;13.77;100.00
7333;BME280;3707;43.618;25.342;2022-09-25T05:18:03;100437.34;;;13.86;100.00
7333;BME280;3707;43.618;25.342;2022-09-25T05:20:31;100438.25;;;13.91;100.00
7333;BME280;3707;43.618;25.342;2022-09-25T05:23:00;100443.50;;;13.97;100.00
7333;BME280;3707;43.618;25.342;2022-09-25T05:25:29;100433.16;;;14.09;100.00
7333;BME280;3707;43.618;25.342;2022-09-25T05:27:58;100346.84;;;13.65;100.00
7333;BME280;3707;43.618;25.342;2022-09-25T05:30:26;100423.59;;;14.05;100.00
7333;BME280;3707;43.618;25.342;2022-09-25T05:32:53;100446.16;;;14.06;100.00
7333;BME280;3707;43.618;25.342;2022-09-25T05:35:25;100447.97;;;14.16;100.00
7333;BME280;3707;43.618;25.342;2022-09-25T05:37:52;100445.41;;;14.27;100.00
7333;BME280;3707;43.618;25.342;2022-09-25T05:40:19;100447.13;;;14.23;100.00
7333;BME280;3707;43.618;25.342;2022-09-25T05:42:48;100438.59;;;14.39;100.00
7333;BME280;3707;43.618;25.342;2022-09-25T05:45:17;100442.13;;;14.54;100.00
7333;BME280;3707;43.618;25.342;2022-09-25T05:47:44;100428.22;;;14.55;100.00
7333;BME280;3707;43.618;25.342;2022-09-25T05:50:13;100443.94;;;14.65;100.00
7333;BME280;3707;43.618;25.342;2022-09-25T05:52:43;100438.69;;;14.58;100.00
7333;BME280;3707;43.618;25.342;2022-09-25T05:55:10;100440.41;;;14.60;100.00
7333;BME280;3707;43.618;25.342;2022-09-25T05:57:37;100434.41;;;14.76;100.00
7333;BME280;3707;43.618;25.342;2022-09-25T06:00:06;100423.09;;;14.80;100.00
7333;BME280;3707;43.618;25.342;2022-09-25T06:02:34;100425.69;;;14.74;100.00
7333;BME280;3707;43.618;25.342;2022-09-25T06:05:00;100427.53;;;14.98;100.00
7333;BME280;3707;43.618;25.342;2022-09-25T06:07:27;100422.25;;;14.95;100.00
7333;BME280;3707;43.618;25.342;2022-09-25T06:09:55;100424.91;;;15.06;100.00
7333;BME280;3707;43.618;25.342;2022-09-25T06:12:22;100429.25;;;15.04;100.00
7333;BME280;3707;43.618;25.342;2022-09-25T06:14:49;100422.28;;;14.94;100.00
7333;BME280;3707;43.618;25.342;2022-09-25T06:17:17;100421.41;;;14.96;100.00
7333;BME280;3707;43.618;25.342;2022-09-25T06:19:44;100424.03;;;14.99;100.00
7333;BME280;3707;43.618;25.342;2022-09-25T06:22:10;100424.06;;;15.08;100.00
7333;BME280;3707;43.618;25.342;2022-09-25T06:24:37;100436.25;;;15.12;100.00
7333;BME280;3707;43.618;25.342;2022-09-25T06:27:06;100421.44;;;15.04;100.00
7333;BME280;3707;43.618;25.342;2022-09-25T06:29:33;100438.88;;;15.12;100.00
7333;BME280;3707;43.618;25.342;2022-09-25T06:32:01;100443.22;;;15.12;100.00
7333;BME280;3707;43.618;25.342;2022-09-25T06:34:27;100430.16;;;15.10;100.00
7333;BME280;3707;43.618;25.342;2022-09-25T06:36:54;100441.56;;;15.50;100.00
7333;BME280;3707;43.618;25.342;2022-09-25T06:39:21;100451.16;;;15.68;100.00
7333;BME280;3707;43.618;25.342;2022-09-25T06:41:50;100454.66;;;15.58;100.00
7333;BME280;3707;43.618;25.342;2022-09-25T06:44:18;100464.22;;;15.71;100.00
7333;BME280;3707;43.618;25.342;2022-09-25T06:46:48;100470.31;;;15.58;100.00
7333;BME280;3707;43.618;25.342;2022-09-25T06:49:15;100473.75;;;15.42;100.00
7333;BME280;3707;43.618;25.342;2022-09-25T06:51:41;100437.13;;;15.14;100.00
7333;BME280;3707;43.618;25.342;2022-09-25T06:54:08;100449.19;;;14.76;100.00
7333;BME280;3707;43.618;25.342;2022-09-25T06:56:35;100472.84;;;15.24;100.00
7333;BME280;3707;43.618;25.342;2022-09-25T06:59:02;100458.94;;;15.33;100.00
7333;BME280;3707;43.618;25.342;2022-09-25T07:01:30;100482.53;;;15.59;100.00
7333;BME280;3707;43.618;25.342;2022-09-25T07:03:57;100479.91;;;15.65;100.00
7333;BME280;3707;43.618;25.342;2022-09-25T07:06:24;100487.78;;;15.80;100.00
7333;BME280;3707;43.618;25.342;2022-09-25T07:08:53;100489.50;;;15.93;100.00
7333;BME280;3707;43.618;25.342;2022-09-25T07:11:25;100490.38;;;16.01;100.00
7333;BME280;3707;43.618;25.342;2022-09-25T07:13:52;100473.81;;;15.95;100.00
7333;BME280;3707;43.618;25.342;2022-09-25T07:16:21;100475.56;;;16.00;100.00
7333;BME280;3707;43.618;25.342;2022-09-25T07:18:52;100482.50;;;16.25;99.16
7333;BME280;3707;43.618;25.342;2022-09-25T07:21:20;100468.50;;;16.38;98.64
7333;BME280;3707;43.618;25.342;2022-09-25T07:23:50;100458.91;;;16.47;98.13
7333;BME280;3707;43.618;25.342;2022-09-25T07:26:19;100444.06;;;16.55;95.14
7333;BME280;3707;43.618;25.342;2022-09-25T07:28:48;100442.28;;;16.66;94.73
7333;BME280;3707;43.618;25.342;2022-09-25T07:31:19;100450.91;;;16.89;92.10
7333;BME280;3707;43.618;25.342;2022-09-25T07:33:47;100436.94;;;16.93;91.95
7333;BME280;3707;43.618;25.342;2022-09-25T07:36:16;100418.50;;;17.07;90.11
7333;BME280;3707;43.618;25.342;2022-09-25T07:38:43;100419.41;;;16.98;86.34
7333;BME280;3707;43.618;25.342;2022-09-25T07:41:10;100447.19;;;17.32;85.27
7333;BME280;3707;43.618;25.342;2022-09-25T07:43:38;100364.38;;;17.04;82.85
7333;BME280;3707;43.618;25.342;2022-09-25T07:46:05;100435.78;;;17.38;78.36
7333;BME280;3707;43.618;25.342;2022-09-25T07:48:32;100435.72;;;17.46;76.28
7333;BME280;3707;43.618;25.342;2022-09-25T07:50:59;100433.97;;;17.48;74.14
7333;BME280;3707;43.618;25.342;2022-09-25T07:53:27;100417.34;;;17.49;75.89
7333;BME280;3707;43.618;25.342;2022-09-25T07:55:56;100427.75;;;17.64;75.08
7333;BME280;3707;43.618;25.342;2022-09-25T07:58:23;100446.69;;;17.98;76.15
7333;BME280;3707;43.618;25.342;2022-09-25T08:00:50;100458.00;;;18.03;71.32
7333;BME280;3707;43.618;25.342;2022-09-25T08:03:17;100449.22;;;18.07;70.69
7333;BME280;3707;43.618;25.342;2022-09-25T08:05:44;100447.34;;;18.22;68.32
7333;BME280;3707;43.618;25.342;2022-09-25T08:08:11;100447.22;;;18.31;67.75
7333;BME280;3707;43.618;25.342;2022-09-25T08:10:39;100451.50;;;18.40;65.58
7333;BME280;3707;43.618;25.342;2022-09-25T08:13:06;100437.47;;;18.43;66.10
7333;BME280;3707;43.618;25.342;2022-09-25T08:15:32;100432.13;;;18.55;64.38
7333;BME280;3707;43.618;25.342;2022-09-25T08:17:59;100449.38;;;18.74;62.65
7333;BME280;3707;43.618;25.342;2022-09-25T08:20:26;100449.28;;;18.83;59.31
7333;BME280;3707;43.618;25.342;2022-09-25T08:22:53;100445.59;;;18.96;58.88
7333;BME280;3707;43.618;25.342;2022-09-25T08:25:21;100449.00;;;19.04;59.08
7333;BME280;3707;43.618;25.342;2022-09-25T08:27:50;100421.06;;;18.97;58.07
7333;BME280;3707;43.618;25.342;2022-09-25T08:30:17;100440.31;;;18.99;58.86
7333;BME280;3707;43.618;25.342;2022-09-25T08:32:43;100443.66;;;19.10;59.03
7333;BME280;3707;43.618;25.342;2022-09-25T08:35:10;100444.31;;;19.26;58.40
7333;BME280;3707;43.618;25.342;2022-09-25T08:37:40;100440.56;;;19.44;56.76
7333;BME280;3707;43.618;25.342;2022-09-25T08:40:15;100425.53;;;19.52;56.82
7333;BME280;3707;43.618;25.342;2022-09-25T08:42:44;100429.66;;;19.68;56.94
7333;BME280;3707;43.618;25.342;2022-09-25T08:45:22;100399.31;;;19.46;55.83
7333;BME280;3707;43.618;25.342;2022-09-25T08:48:08;100426.84;;;19.77;57.25
7333;BME280;3707;43.618;25.342;2022-09-25T08:50:58;100414.63;;;19.76;54.71
7333;BME280;3707;43.618;25.342;2022-09-25T08:53:29;100400.53;;;19.77;53.33
7333;BME280;3707;43.618;25.342;2022-09-25T08:55:58;100407.13;;;20.02;54.97
7333;BME280;3707;43.618;25.342;2022-09-25T08:58:44;100405.03;;;20.19;53.31
7333;BME280;3707;43.618;25.342;2022-09-25T09:01:16;100399.50;;;20.35;52.83
7333;BME280;3707;43.618;25.342;2022-09-25T09:03:49;100401.25;;;20.36;51.35
7333;BME280;3707;43.618;25.342;2022-09-25T09:06:18;100358.78;;;20.05;49.67
7333;BME280;3707;43.618;25.342;2022-09-25T09:08:55;100398.47;;;20.42;49.64
7333;BME280;3707;43.618;25.342;2022-09-25T09:11:26;100396.19;;;20.68;49.04
7333;BME280;3707;43.618;25.342;2022-09-25T09:13:59;100387.13;;;20.81;47.72
7333;BME280;3707;43.618;25.342;2022-09-25T09:16:33;100383.94;;;20.65;47.05
7333;BME280;3707;43.618;25.342;2022-09-25T09:19:04;100369.34;;;20.49;48.37
7333;BME280;3707;43.618;25.342;2022-09-25T09:21:34;100381.47;;;20.58;48.87
7333;BME280;3707;43.618;25.342;2022-09-25T09:24:08;100375.97;;;20.68;48.87
7333;BME280;3707;43.618;25.342;2022-09-25T09:27:08;100376.41;;;20.89;49.19
7333;BME280;3707;43.618;25.342;2022-09-25T09:29:49;100367.84;;;20.79;47.81
7333;BME280;3707;43.618;25.342;2022-09-25T09:32:34;100366.72;;;20.89;48.51
7333;BME280;3707;43.618;25.342;2022-09-25T09:35:11;100371.53;;;21.10;48.00
7333;BME280;3707;43.618;25.342;2022-09-25T09:37:48;100369.66;;;21.15;47.93
7333;BME280;3707;43.618;25.342;2022-09-25T09:40:23;100368.03;;;21.08;47.34
7333;BME280;3707;43.618;25.342;2022-09-25T09:42:59;100352.13;;;21.14;47.80
7333;BME280;3707;43.618;25.342;2022-09-25T09:45:38;100314.16;;;21.20;47.57
7333;BME280;3707;43.618;25.342;2022-09-25T09:48:14;100350.38;;;21.49;47.21
7333;BME280;3707;43.618;25.342;2022-09-25T09:50:45;100323.97;;;21.50;47.24
7333;BME280;3707;43.618;25.342;2022-09-25T09:53:23;100355.16;;;21.68;45.61
7333;BME280;3707;43.618;25.342;2022-09-25T09:55:56;100355.56;;;21.52;45.32
7333;BME280;3707;43.618;25.342;2022-09-25T09:58:28;100354.75;;;21.50;45.35
7333;BME280;3707;43.618;25.342;2022-09-25T10:00:57;100337.25;;;21.47;45.09
7333;BME280;3707;43.618;25.342;2022-09-25T10:03:28;100348.25;;;21.63;45.05
7333;BME280;3707;43.618;25.342;2022-09-25T10:05:57;100314.41;;;21.45;45.88
7333;BME280;3707;43.618;25.342;2022-09-25T10:08:25;100350.59;;;21.75;45.09
7333;BME280;3707;43.618;25.342;2022-09-25T10:10:53;100303.47;;;21.60;44.71
7333;BME280;3707;43.618;25.342;2022-09-25T10:13:23;100271.63;;;21.66;44.69
7333;BME280;3707;43.618;25.342;2022-09-25T10:15:54;100232.31;;;21.55;44.39
7333;BME280;3707;43.618;25.342;2022-09-25T10:18:27;100344.50;;;22.36;43.91
7333;BME280;3707;43.618;25.342;2022-09-25T10:20:58;100330.00;;;22.51;44.17
7333;BME280;3707;43.618;25.342;2022-09-25T10:23:34;100326.47;;;22.50;42.73
7333;BME280;3707;43.618;25.342;2022-09-25T10:26:01;100340.00;;;22.69;42.73
7333;BME280;3707;43.618;25.342;2022-09-25T10:28:30;100336.91;;;22.84;41.53
7333;BME280;3707;43.618;25.342;2022-09-25T10:30:59;100326.56;;;22.77;40.62
7333;BME280;3707;43.618;25.342;2022-09-25T10:33:30;100335.78;;;22.93;40.99
7333;BME280;3707;43.618;25.342;2022-09-25T10:35:57;100334.66;;;23.00;41.20
7333;BME280;3707;43.618;25.342;2022-09-25T10:38:31;100314.50;;;22.68;41.64
7333;BME280;3707;43.618;25.342;2022-09-25T10:41:02;100312.31;;;22.82;42.09
7333;BME280;3707;43.618;25.342;2022-09-25T10:43:30;100323.44;;;22.92;41.95
7333;BME280;3707;43.618;25.342;2022-09-25T10:46:05;100330.41;;;22.94;41.37
7333;BME280;3707;43.618;25.342;2022-09-25T10:48:35;100296.03;;;22.94;40.89
7333;BME280;3707;43.618;25.342;2022-09-25T10:51:20;100295.13;;;22.95;41.38
7333;BME280;3707;43.618;25.342;2022-09-25T10:53:49;100305.63;;;23.25;41.07
7333;BME280;3707;43.618;25.342;2022-09-25T10:56:22;100296.88;;;23.49;40.97
7333;BME280;3707;43.618;25.342;2022-09-25T10:58:57;100297.78;;;23.48;40.80
7333;BME280;3707;43.618;25.342;2022-09-25T11:01:31;100266.31;;;23.14;40.96
7333;BME280;3707;43.618;25.342;2022-09-25T11:04:03;100277.69;;;23.16;39.02
7333;BME280;3707;43.618;25.342;2022-09-25T11:06:34;100279.19;;;23.23;39.33
7333;BME280;3707;43.618;25.342;2022-09-25T11:09:12;100273.00;;;23.24;40.21
7333;BME280;3707;43.618;25.342;2022-09-25T11:11:40;100279.47;;;23.15;39.95
7333;BME280;3707;43.618;25.342;2022-09-25T11:14:17;100267.06;;;23.17;40.67
7333;BME280;3707;43.618;25.342;2022-09-25T11:16:49;100254.84;;;23.13;41.04
7333;BME280;3707;43.618;25.342;2022-09-25T11:19:26;100276.19;;;23.34;41.11
7333;BME280;3707;43.618;25.342;2022-09-25T11:22:02;100260.53;;;23.54;41.14
7333;BME280;3707;43.618;25.342;2022-09-25T11:24:40;100258.44;;;23.63;38.12
7333;BME280;3707;43.618;25.342;2022-09-25T11:27:17;100186.94;;;23.39;38.64
7333;BME280;3707;43.618;25.342;2022-09-25T11:29:53;100229.66;;;24.01;37.65
7333;BME280;3707;43.618;25.342;2022-09-25T11:32:26;100264.91;;;24.28;39.56
7333;BME280;3707;43.618;25.342;2022-09-25T11:35:26;100263.44;;;24.42;38.57
7333;BME280;3707;43.618;25.342;2022-09-25T11:38:04;100198.22;;;23.92;37.52
7333;BME280;3707;43.618;25.342;2022-09-25T11:40:49;100239.25;;;24.28;37.76
7333;BME280;3707;43.618;25.342;2022-09-25T11:43:44;100248.22;;;24.26;36.88
7333;BME280;3707;43.618;25.342;2022-09-25T11:46:19;100265.47;;;24.36;36.48
7333;BME280;3707;43.618;25.342;2022-09-25T11:48:56;100246.59;;;24.22;35.35
7333;BME280;3707;43.618;25.342;2022-09-25T11:51:34;100249.13;;;24.25;35.60
7333;BME280;3707;43.618;25.342;2022-09-25T11:54:11;100228.84;;;24.24;36.14
7333;BME280;3707;43.618;25.342;2022-09-25T11:56:47;100246.69;;;24.42;36.15
7333;BME280;3707;43.618;25.342;2022-09-25T11:59:30;100240.34;;;24.23;36.35
7333;BME280;3707;43.618;25.342;2022-09-25T12:02:15;100238.03;;;24.37;36.29
7333;BME280;3707;43.618;25.342;2022-09-25T12:04:58;100233.34;;;24.22;35.40
7333;BME280;3707;43.618;25.342;2022-09-25T12:07:41;100237.59;;;24.26;36.36
7333;BME280;3707;43.618;25.342;2022-09-25T12:10:26;100230.84;;;24.17;35.94
7333;BME280;3707;43.618;25.342;2022-09-25T12:13:00;100237.59;;;24.26;36.00
7333;BME280;3707;43.618;25.342;2022-09-25T12:15:41;100242.81;;;24.27;35.65
7333;BME280;3707;43.618;25.342;2022-09-25T12:18:17;100235.28;;;24.16;35.13
7333;BME280;3707;43.618;25.342;2022-09-25T12:20:49;100227.19;;;24.21;35.08
7333;BME280;3707;43.618;25.342;2022-09-25T12:23:25;100231.72;;;24.17;35.10
7333;BME280;3707;43.618;25.342;2022-09-25T12:26:08;100225.03;;;24.07;34.30
7333;BME280;3707;43.618;25.342;2022-09-25T12:28:50;100226.47;;;24.16;34.35
7333;BME280;3707;43.618;25.342;2022-09-25T12:31:29;100226.59;;;24.11;32.04
7333;BME280;3707;43.618;25.342;2022-09-25T12:34:06;100225.56;;;24.17;31.83
7333;BME280;3707;43.618;25.342;2022-09-25T12:36:43;100191.09;;;23.94;30.17
7333;BME280;3707;43.618;25.342;2022-09-25T12:39:24;100218.31;;;24.22;30.58
7333;BME280;3707;43.618;25.342;2022-09-25T12:42:01;100211.91;;;24.28;30.16
7333;BME280;3707;43.618;25.342;2022-09-25T12:44:38;100206.47;;;24.31;31.17
7333;BME280;3707;43.618;25.342;2022-09-25T12:47:12;100205.47;;;24.33;31.70
7333;BME280;3707;43.618;25.342;2022-09-25T12:49:45;100201.16;;;24.31;32.46
7333;BME280;3707;43.618;25.342;2022-09-25T12:52:17;100200.44;;;24.27;31.77
7333;BME280;3707;43.618;25.342;2022-09-25T12:54:51;100196.13;;;24.25;32.27
7333;BME280;3707;43.618;25.342;2022-09-25T12:57:23;100169.31;;;24.09;32.38
7333;BME280;3707;43.618;25.342;2022-09-25T12:59:54;100115.03;;;23.74;32.93
7333;BME280;3707;43.618;25.342;2022-09-25T13:02:28;100177.34;;;24.07;33.61
7333;BME280;3707;43.618;25.342;2022-09-25T13:05:04;100178.84;;;24.14;33.38
7333;BME280;3707;43.618;25.342;2022-09-25T13:07:37;100140.81;;;23.92;34.23
7333;BME280;3707;43.618;25.342;2022-09-25T13:10:18;100180.56;;;24.15;32.31
7333;BME280;3707;43.618;25.342;2022-09-25T13:12:47;100183.84;;;24.22;32.15
7333;BME280;3707;43.618;25.342;2022-09-25T13:15:18;100178.22;;;24.30;31.89
7333;BME280;3707;43.618;25.342;2022-09-25T13:17:47;100185.09;;;24.35;31.84